Terminal Aerodrome Forecast
Issued by NWS Milwaukee/Sullivan, WI

Home | Current Version | Previous Version | Text Only | Print | Product List | Glossary On
Versions: 1 2 3 4 5 6 7 8 9 10 11 12 13 14 15 16 17 18 19 20 21 22 23 24 25 26 27 28 29 30 31 32 33 34 35 36 37 38
000
FTUS43 KMKX 282354 AAB
TAFMKE
TAF AMD
KMKE 282354Z 2900/3006 03006KT 1/4SM FG OVC002
     FM291000 04007KT 1SM BR OVC004
     FM291400 06009KT 6SM BR OVC008
     FM291500 07009KT P6SM SCT010 BKN150
     FM291900 06010KT P6SM OVC050=

USA.gov is the U.S. government's official web portal to all federal, state and local government web resources and services.